Terminal Aerodrome Forecast
Issued by NWS Wakefield, VA

Home | Current Version | Previous Version | Text Only | Print | Product List | Glossary On
Versions: 1 2 3 4 5 6 7 8 9 10 11 12 13 14 15 16 17 18 19 20 21
000
FTUS41 KAKQ 051005 AAD
TAFSBY
TAF AMD
KSBY 051005Z 0510/0606 32005KT P6SM SCT004 BKN250
     FM051300 32010KT P6SM SKC
     FM060000 13004KT P6SM SKC=

USA.gov is the U.S. government's official web portal to all federal, state and local government web resources and services.